createdAt,value
2022-10-02T00:01:19.888Z,11.50
2022-10-02T00:03:25.689Z,11.50
2022-10-02T00:05:30.325Z,11.50
2022-10-02T00:07:36.611Z,11.60
2022-10-02T00:09:42.045Z,11.70
2022-10-02T00:11:46.331Z,11.70
2022-10-02T00:13:50.318Z,11.70
2022-10-02T00:15:53.174Z,11.70
2022-10-02T00:17:57.432Z,11.80
2022-10-02T00:20:01.949Z,11.80
2022-10-02T00:22:17.077Z,11.80
2022-10-02T00:24:21.951Z,11.80
2022-10-02T00:26:26.481Z,11.80
2022-10-02T00:28:30.369Z,11.80
2022-10-02T00:30:35.666Z,11.70
2022-10-02T00:32:41.564Z,11.80
2022-10-02T00:34:50.667Z,11.70
2022-10-02T00:36:58.408Z,11.70
2022-10-02T00:39:03.250Z,11.70
2022-10-02T00:41:40.817Z,11.70
2022-10-02T00:43:46.639Z,11.70
2022-10-02T00:46:05.999Z,11.70
2022-10-02T00:48:16.275Z,11.80
2022-10-02T00:50:25.878Z,11.80
2022-10-02T00:52:38.613Z,11.80
2022-10-02T00:54:54.786Z,11.90
2022-10-02T00:57:03.755Z,11.90
2022-10-02T00:59:23.531Z,11.90
2022-10-02T01:01:30.025Z,11.90
2022-10-02T01:03:35.310Z,12.00
2022-10-02T01:05:38.275Z,11.90
2022-10-02T01:07:43.975Z,11.90
2022-10-02T01:09:46.749Z,11.90
2022-10-02T01:11:49.619Z,11.90
2022-10-02T01:13:52.421Z,11.90
2022-10-02T01:15:56.343Z,11.80
2022-10-02T01:17:59.172Z,11.80
2022-10-02T01:20:05.048Z,11.80
2022-10-02T01:22:15.775Z,11.80
2022-10-02T01:24:21.446Z,11.70
2022-10-02T01:26:25.562Z,11.70
2022-10-02T01:28:28.373Z,11.70
2022-10-02T01:30:31.338Z,11.70
2022-10-02T01:32:35.035Z,11.70
2022-10-02T01:34:38.006Z,11.70
2022-10-02T01:36:40.814Z,11.70
2022-10-02T01:38:43.625Z,11.70
2022-10-02T01:40:46.412Z,11.70
2022-10-02T01:42:50.506Z,11.60
2022-10-02T01:44:53.335Z,11.60
2022-10-02T01:47:00.357Z,11.60
2022-10-02T01:49:27.342Z,11.70
2022-10-02T01:51:36.823Z,11.70
2022-10-02T01:53:42.110Z,11.60
2022-10-02T01:55:46.625Z,11.60
2022-10-02T01:57:59.679Z,11.60
2022-10-02T02:00:08.898Z,11.60
2022-10-02T02:02:15.455Z,11.50
2022-10-02T02:04:22.589Z,11.50
2022-10-02T02:06:29.542Z,11.50
2022-10-02T02:08:34.119Z,11.50
2022-10-02T02:10:44.314Z,11.50
2022-10-02T02:12:48.270Z,11.50
2022-10-02T02:14:53.633Z,11.50
2022-10-02T02:16:57.713Z,11.50
2022-10-02T02:19:02.841Z,11.50
2022-10-02T02:21:07.326Z,11.50
2022-10-02T02:23:11.828Z,11.50
2022-10-02T02:25:16.531Z,11.50
2022-10-02T02:27:21.334Z,11.50
2022-10-02T02:29:24.120Z,11.50
2022-10-02T02:31:29.611Z,11.50
2022-10-02T02:33:34.195Z,11.50
2022-10-02T02:35:38.903Z,11.50
2022-10-02T02:37:41.673Z,11.50
2022-10-02T02:39:47.914Z,11.50
2022-10-02T02:41:52.750Z,11.50
2022-10-02T02:43:57.718Z,11.50
2022-10-02T02:46:02.301Z,11.40
2022-10-02T02:48:08.881Z,11.50
2022-10-02T02:50:13.049Z,11.40
2022-10-02T02:52:17.323Z,11.50
2022-10-02T02:54:23.022Z,11.50
2022-10-02T02:56:25.805Z,11.40
2022-10-02T02:58:29.643Z,11.40
2022-10-02T03:00:32.573Z,11.40
2022-10-02T03:02:35.415Z,11.50
2022-10-02T03:04:39.565Z,11.50
2022-10-02T03:06:42.987Z,11.50
2022-10-02T03:08:45.858Z,11.50
2022-10-02T03:10:53.412Z,11.50
2022-10-02T03:12:59.420Z,11.50
2022-10-02T03:15:13.622Z,11.50
2022-10-02T03:17:23.063Z,11.50
2022-10-02T03:19:34.879Z,11.60
2022-10-02T03:21:42.156Z,11.60
2022-10-02T03:23:55.166Z,11.60
2022-10-02T03:26:01.118Z,11.60
2022-10-02T03:28:04.918Z,11.60
2022-10-02T03:30:09.294Z,11.70
2022-10-02T03:32:12.126Z,11.70
2022-10-02T03:34:14.895Z,11.60
2022-10-02T03:36:17.941Z,11.70
2022-10-02T03:38:22.091Z,11.80
2022-10-02T03:40:25.123Z,11.80
2022-10-02T03:42:28.895Z,11.80
2022-10-02T03:44:31.696Z,11.70
2022-10-02T03:46:34.836Z,11.70
2022-10-02T03:48:37.907Z,11.70
2022-10-02T03:50:40.751Z,11.70
2022-10-02T03:52:44.974Z,11.80
2022-10-02T03:54:49.181Z,11.80
2022-10-02T03:56:55.986Z,11.80
2022-10-02T03:59:00.116Z,11.80
2022-10-02T04:01:04.362Z,11.80
2022-10-02T04:03:08.148Z,11.80
2022-10-02T04:05:16.390Z,11.80
2022-10-02T04:07:22.530Z,11.90
2022-10-02T04:09:28.575Z,11.80
2022-10-02T04:11:33.514Z,11.80
2022-10-02T04:13:38.675Z,11.80
2022-10-02T04:15:53.512Z,11.90
2022-10-02T04:17:59.298Z,11.90
2022-10-02T04:20:04.678Z,11.90
2022-10-02T04:22:08.883Z,11.80
2022-10-02T04:24:15.741Z,11.90
2022-10-02T04:26:20.985Z,11.90
2022-10-02T04:28:27.268Z,11.80
2022-10-02T04:30:30.347Z,11.80
2022-10-02T04:32:34.562Z,11.80
2022-10-02T04:34:37.351Z,11.90
2022-10-02T04:36:44.783Z,11.90
2022-10-02T04:39:03.911Z,11.90
2022-10-02T04:41:23.621Z,11.90
2022-10-02T04:43:36.150Z,11.90
2022-10-02T04:45:48.895Z,11.90
2022-10-02T04:48:17.942Z,11.80
2022-10-02T04:50:36.461Z,11.90
2022-10-02T04:52:52.137Z,11.90
2022-10-02T04:55:03.605Z,11.80
2022-10-02T04:57:16.240Z,11.80
2022-10-02T04:59:36.349Z,11.80
2022-10-02T05:01:47.583Z,11.80
2022-10-02T05:04:04.427Z,11.70
2022-10-02T05:06:23.334Z,11.70
2022-10-02T05:08:43.264Z,11.70
2022-10-02T05:10:58.679Z,11.60
2022-10-02T05:13:06.733Z,11.60
2022-10-02T05:15:24.643Z,11.60
2022-10-02T05:17:34.834Z,11.50
2022-10-02T05:19:45.631Z,11.50
2022-10-02T05:21:55.578Z,11.50
2022-10-02T05:24:05.961Z,11.50
2022-10-02T05:26:31.494Z,11.40
2022-10-02T05:28:44.119Z,11.40
2022-10-02T05:30:51.888Z,11.30
2022-10-02T05:33:11.585Z,11.30
2022-10-02T05:35:21.960Z,11.30
2022-10-02T05:37:32.046Z,11.30
2022-10-02T05:39:37.359Z,11.30
2022-10-02T05:41:47.083Z,11.30
2022-10-02T05:43:50.557Z,11.30
2022-10-02T05:45:56.859Z,11.30
2022-10-02T05:48:04.757Z,11.30
2022-10-02T05:50:19.496Z,11.30
2022-10-02T05:52:23.478Z,11.30
2022-10-02T05:54:35.633Z,11.30
2022-10-02T05:56:39.759Z,11.30
2022-10-02T05:58:45.060Z,11.40
2022-10-02T06:00:49.050Z,11.40
2022-10-02T06:02:56.755Z,11.50
2022-10-02T06:05:02.380Z,11.50
2022-10-02T06:07:07.614Z,11.60
2022-10-02T06:09:18.979Z,11.60
2022-10-02T06:11:24.423Z,11.70
2022-10-02T06:13:30.245Z,11.70
2022-10-02T06:15:36.389Z,11.70
2022-10-02T06:17:40.810Z,11.70
2022-10-02T06:19:47.045Z,11.70
2022-10-02T06:21:51.724Z,11.80
2022-10-02T06:23:56.718Z,11.80
2022-10-02T06:26:00.941Z,11.80
2022-10-02T06:28:07.484Z,11.80
2022-10-02T06:30:11.403Z,11.80
2022-10-02T06:32:20.358Z,11.90
2022-10-02T06:34:23.430Z,12.00
2022-10-02T06:36:55.997Z,12.00
2022-10-02T06:39:07.102Z,12.10
2022-10-02T06:41:11.126Z,12.10
2022-10-02T06:43:24.775Z,12.10
2022-10-02T06:45:31.969Z,12.20
2022-10-02T06:47:41.023Z,12.30
2022-10-02T06:49:52.289Z,12.40
2022-10-02T06:52:03.374Z,12.60
2022-10-02T06:54:19.221Z,12.80
2022-10-02T06:56:34.526Z,12.90
2022-10-02T06:58:46.313Z,12.90
2022-10-02T07:00:53.078Z,12.90
2022-10-02T07:03:09.059Z,12.70
2022-10-02T07:05:32.852Z,12.70
2022-10-02T07:07:43.214Z,12.70
2022-10-02T07:10:08.146Z,12.80
2022-10-02T07:12:32.548Z,13.00
2022-10-02T07:14:45.447Z,13.30
2022-10-02T07:17:01.975Z,13.60
2022-10-02T07:19:16.922Z,13.70
2022-10-02T07:21:23.729Z,14.00
2022-10-02T07:23:36.162Z,14.30
2022-10-02T07:25:45.055Z,14.70
2022-10-02T07:27:51.222Z,14.90
2022-10-02T07:29:56.464Z,15.20
2022-10-02T07:32:15.867Z,15.50
2022-10-02T07:34:27.333Z,15.70
2022-10-02T07:36:35.571Z,15.80
2022-10-02T07:38:51.590Z,16.10
2022-10-02T07:41:00.209Z,16.30
2022-10-02T07:43:12.690Z,16.50
2022-10-02T07:45:28.701Z,16.60
2022-10-02T07:47:48.502Z,16.70
2022-10-02T07:49:52.860Z,16.80
2022-10-02T07:51:58.291Z,16.30
2022-10-02T07:54:09.849Z,16.60
2022-10-02T07:56:19.900Z,16.70
2022-10-02T07:58:27.962Z,16.70
2022-10-02T08:00:32.303Z,16.90
2022-10-02T08:02:38.421Z,17.10
2022-10-02T08:04:41.181Z,17.40
2022-10-02T08:06:45.006Z,17.10
2022-10-02T08:08:50.553Z,17.30
2022-10-02T08:10:56.984Z,17.30
2022-10-02T08:13:04.072Z,17.80
2022-10-02T08:15:08.209Z,17.90
2022-10-02T08:17:27.429Z,17.60
2022-10-02T08:19:33.103Z,17.50
2022-10-02T08:21:40.062Z,17.00
2022-10-02T08:23:44.622Z,16.70
2022-10-02T08:25:49.374Z,16.50
2022-10-02T08:27:56.822Z,16.40
2022-10-02T08:30:02.270Z,16.10
2022-10-02T08:32:08.780Z,15.90
2022-10-02T08:34:14.921Z,15.90
2022-10-02T08:36:49.099Z,15.70
2022-10-02T08:38:55.048Z,15.70
2022-10-02T08:41:21.666Z,15.80
2022-10-02T08:43:56.373Z,15.70
2022-10-02T08:46:13.927Z,15.50
2022-10-02T08:48:43.948Z,15.70
2022-10-02T08:51:02.620Z,16.00
2022-10-02T08:53:51.087Z,15.90
2022-10-02T08:56:20.363Z,15.80
2022-10-02T08:58:51.065Z,16.00
2022-10-02T09:00:58.740Z,16.00
2022-10-02T09:03:30.521Z,16.30
2022-10-02T09:06:03.093Z,16.60
2022-10-02T09:08:21.621Z,16.50
2022-10-02T09:11:16.253Z,16.20
2022-10-02T09:13:42.366Z,16.10
2022-10-02T09:15:47.203Z,17.20
2022-10-02T09:17:53.256Z,17.00
2022-10-02T09:20:17.406Z,17.10
2022-10-02T09:22:46.345Z,17.70
2022-10-02T09:25:02.183Z,17.20
2022-10-02T09:27:38.050Z,18.30
2022-10-02T09:30:12.813Z,19.10
2022-10-02T09:33:00.115Z,19.80
2022-10-02T09:35:22.994Z,19.70
2022-10-02T09:37:53.557Z,20.10
2022-10-02T09:40:32.950Z,20.40
2022-10-02T09:43:05.485Z,20.90
2022-10-02T09:45:46.685Z,21.30
2022-10-02T09:48:30.205Z,22.00
2022-10-02T09:50:57.239Z,22.30
2022-10-02T09:53:33.833Z,22.50
2022-10-02T09:56:09.254Z,22.70
2022-10-02T09:58:34.740Z,23.10
2022-10-02T10:01:02.930Z,23.30
2022-10-02T10:03:42.426Z,23.60
2022-10-02T10:06:22.122Z,23.10
2022-10-02T10:08:57.069Z,22.70
2022-10-02T10:11:29.122Z,21.70
2022-10-02T10:13:57.161Z,23.00
2022-10-02T10:16:30.218Z,22.30
2022-10-02T10:18:55.079Z,21.30
2022-10-02T10:21:34.469Z,20.90
2022-10-02T10:24:05.030Z,20.00
2022-10-02T10:26:37.557Z,19.50
2022-10-02T10:29:12.236Z,19.50
2022-10-02T10:31:32.039Z,20.30
2022-10-02T10:34:03.113Z,19.30
2022-10-02T10:36:46.867Z,18.80
2022-10-02T10:38:52.324Z,18.40
2022-10-02T10:41:19.344Z,18.00
2022-10-02T10:43:51.356Z,17.90
2022-10-02T10:46:02.644Z,18.90
2022-10-02T10:48:18.989Z,20.00
2022-10-02T10:50:44.336Z,21.00
2022-10-02T10:53:08.102Z,22.30
2022-10-02T10:55:13.352Z,22.80
2022-10-02T10:57:25.900Z,22.90
2022-10-02T10:59:56.221Z,23.60
2022-10-02T11:02:13.845Z,23.70
2022-10-02T11:04:40.899Z,24.30
2022-10-02T11:06:56.219Z,24.50
2022-10-02T11:09:49.787Z,23.70
2022-10-02T11:12:09.413Z,23.70
2022-10-02T11:14:22.819Z,23.10
2022-10-02T11:17:02.353Z,22.30
2022-10-02T11:19:19.201Z,21.30
2022-10-02T11:21:43.370Z,20.90
2022-10-02T11:23:57.680Z,20.00
2022-10-02T11:26:12.609Z,19.20
2022-10-02T11:28:23.971Z,18.30
2022-10-02T11:30:26.841Z,17.80
2022-10-02T11:33:01.638Z,17.40
2022-10-02T11:35:11.976Z,17.10
2022-10-02T11:37:24.425Z,16.80
2022-10-02T11:39:38.506Z,16.50
2022-10-02T11:42:17.538Z,16.20
2022-10-02T11:44:29.046Z,16.00
2022-10-02T11:47:03.537Z,15.70
2022-10-02T11:49:35.006Z,15.60
2022-10-02T11:52:17.929Z,15.60
2022-10-02T11:54:31.022Z,15.50
2022-10-02T11:56:44.083Z,15.50
2022-10-02T11:58:50.441Z,15.50
2022-10-02T12:01:14.695Z,15.60
2022-10-02T12:03:20.511Z,15.90
2022-10-02T12:05:36.885Z,17.10
2022-10-02T12:07:42.652Z,18.40
2022-10-02T12:09:54.611Z,19.70
2022-10-02T12:12:03.757Z,20.20
2022-10-02T12:14:18.211Z,20.40
2022-10-02T12:16:25.531Z,19.80
2022-10-02T12:18:34.577Z,19.90
2022-10-02T12:21:21.473Z,19.50
2022-10-02T12:23:50.422Z,19.60
2022-10-02T12:26:12.605Z,19.00
2022-10-02T12:28:21.278Z,18.50
2022-10-02T12:30:24.272Z,18.00
2022-10-02T12:32:36.476Z,17.70
2022-10-02T12:34:45.081Z,17.30
2022-10-02T12:36:56.510Z,17.10
2022-10-02T12:39:05.250Z,16.90
2022-10-02T12:41:11.328Z,16.60
2022-10-02T12:43:35.269Z,16.40
2022-10-02T12:45:58.412Z,16.30
2022-10-02T12:48:09.077Z,16.30
2022-10-02T12:50:23.324Z,16.10
2022-10-02T12:53:05.124Z,16.00
2022-10-02T12:55:49.288Z,16.00
2022-10-02T12:58:00.546Z,16.10
2022-10-02T13:00:08.168Z,16.10
2022-10-02T13:02:49.086Z,16.10
2022-10-02T13:05:26.869Z,16.20
2022-10-02T13:07:51.032Z,16.10
2022-10-02T13:09:54.307Z,16.20
2022-10-02T13:12:12.155Z,16.20
2022-10-02T13:14:37.383Z,16.40
2022-10-02T13:17:09.697Z,16.50
2022-10-02T13:19:16.626Z,16.60
2022-10-02T13:21:21.457Z,16.70
2022-10-02T13:23:26.676Z,17.30
2022-10-02T13:25:42.670Z,18.40
2022-10-02T13:27:49.806Z,19.30
2022-10-02T13:29:59.473Z,20.10
2022-10-02T13:32:12.506Z,20.70
2022-10-02T13:34:26.375Z,21.10
2022-10-02T13:36:35.082Z,21.40
2022-10-02T13:39:04.329Z,21.70
2022-10-02T13:41:14.334Z,21.70
2022-10-02T13:43:40.659Z,22.20
2022-10-02T13:45:47.618Z,22.00
2022-10-02T13:47:58.871Z,21.20
2022-10-02T13:50:17.484Z,20.60
2022-10-02T13:52:22.999Z,20.10
2022-10-02T13:54:38.202Z,19.60
2022-10-02T13:56:47.627Z,19.20
2022-10-02T13:59:05.225Z,18.90
2022-10-02T14:01:17.278Z,18.60
2022-10-02T14:03:25.055Z,18.50
2022-10-02T14:05:33.549Z,18.40
2022-10-02T14:07:50.205Z,18.30
2022-10-02T14:09:55.635Z,18.30
2022-10-02T14:12:12.483Z,19.10
2022-10-02T14:14:20.325Z,19.70
2022-10-02T14:16:30.635Z,20.10
2022-10-02T14:18:53.297Z,20.50
2022-10-02T14:21:00.177Z,20.80
2022-10-02T14:23:24.108Z,21.00
2022-10-02T14:25:35.510Z,21.30
2022-10-02T14:27:56.584Z,21.40
2022-10-02T14:29:59.967Z,21.40
2022-10-02T14:32:22.470Z,21.60
2022-10-02T14:34:47.805Z,21.50
2022-10-02T14:36:53.499Z,21.40
2022-10-02T14:39:04.490Z,21.40
2022-10-02T14:41:14.372Z,21.50
2022-10-02T14:43:46.549Z,20.90
2022-10-02T14:46:17.604Z,20.40
2022-10-02T14:48:27.430Z,19.50
2022-10-02T14:50:53.575Z,18.80
2022-10-02T14:53:11.654Z,18.30
2022-10-02T14:55:31.057Z,17.80
2022-10-02T14:57:44.347Z,17.10
2022-10-02T15:00:06.704Z,16.90
2022-10-02T15:02:22.942Z,16.60
2022-10-02T15:04:31.694Z,16.50
2022-10-02T15:06:43.703Z,16.30
2022-10-02T15:08:48.475Z,16.20
2022-10-02T15:10:51.234Z,16.10
2022-10-02T15:12:59.643Z,16.10
2022-10-02T15:15:09.914Z,16.00
2022-10-02T15:17:32.800Z,15.90
2022-10-02T15:19:38.458Z,15.80
2022-10-02T15:21:43.758Z,15.80
2022-10-02T15:23:46.965Z,15.60
2022-10-02T15:26:03.487Z,15.60
2022-10-02T15:28:34.523Z,15.50
2022-10-02T15:30:31.599Z,15.50
2022-10-02T15:32:40.756Z,15.40
2022-10-02T15:34:46.789Z,15.40
2022-10-02T15:37:07.493Z,15.30
2022-10-02T15:39:23.571Z,15.50
2022-10-02T15:41:40.863Z,15.60
2022-10-02T15:43:48.459Z,15.80
2022-10-02T15:46:03.422Z,15.80
2022-10-02T15:48:19.849Z,15.80
2022-10-02T15:50:30.502Z,15.80
2022-10-02T15:52:38.227Z,15.80
2022-10-02T15:54:48.819Z,15.80
2022-10-02T15:56:59.577Z,15.70
2022-10-02T15:59:14.527Z,15.70
2022-10-02T16:01:30.972Z,15.60
2022-10-02T16:03:38.172Z,15.50
2022-10-02T16:05:53.438Z,15.50
2022-10-02T16:08:10.051Z,15.40
2022-10-02T16:10:18.377Z,15.30
2022-10-02T16:12:38.783Z,15.20
2022-10-02T16:14:47.066Z,15.20
2022-10-02T16:17:27.041Z,15.10
2022-10-02T16:19:37.926Z,15.00
2022-10-02T16:21:55.218Z,14.90
2022-10-02T16:24:39.435Z,14.80
2022-10-02T16:27:07.296Z,14.70
2022-10-02T16:29:17.897Z,14.60
2022-10-02T16:31:34.845Z,14.60
2022-10-02T16:33:45.339Z,14.50
2022-10-02T16:36:17.733Z,14.50
2022-10-02T16:38:24.888Z,14.40
2022-10-02T16:40:32.096Z,14.30
2022-10-02T16:42:49.206Z,14.30
2022-10-02T16:45:30.017Z,14.30
2022-10-02T16:47:36.038Z,14.20
2022-10-02T16:49:44.270Z,14.10
2022-10-02T16:51:53.075Z,14.00
2022-10-02T16:53:57.510Z,14.00
2022-10-02T16:56:12.303Z,13.90
2022-10-02T16:58:21.740Z,13.80
2022-10-02T17:00:25.514Z,13.80
2022-10-02T17:02:33.191Z,13.70
2022-10-02T17:04:45.430Z,13.60
2022-10-02T17:06:50.639Z,13.60
2022-10-02T17:08:55.510Z,13.50
2022-10-02T17:11:06.349Z,13.50
2022-10-02T17:13:25.761Z,13.40
2022-10-02T17:15:33.361Z,13.40
2022-10-02T17:17:54.944Z,13.30
2022-10-02T17:20:07.763Z,13.30
2022-10-02T17:22:11.423Z,13.30
2022-10-02T17:24:23.958Z,13.20
2022-10-02T17:26:32.070Z,13.20
2022-10-02T17:28:39.499Z,13.20
2022-10-02T17:30:51.039Z,13.20
2022-10-02T17:33:06.959Z,13.10
2022-10-02T17:35:16.075Z,13.10
2022-10-02T17:38:05.314Z,13.10
2022-10-02T17:40:10.258Z,13.00
2022-10-02T17:42:16.822Z,13.00
2022-10-02T17:44:26.322Z,13.00
2022-10-02T17:46:43.992Z,12.90
2022-10-02T17:48:48.566Z,12.90
2022-10-02T17:50:59.832Z,12.90
2022-10-02T17:53:24.492Z,12.90
2022-10-02T17:55:52.831Z,12.70
2022-10-02T17:58:02.044Z,12.80
2022-10-02T18:00:11.406Z,12.70
2022-10-02T18:02:22.545Z,12.70
2022-10-02T18:04:28.931Z,12.70
2022-10-02T18:06:35.865Z,12.60
2022-10-02T18:09:12.559Z,12.60
2022-10-02T18:11:24.395Z,12.50
2022-10-02T18:13:53.881Z,12.50
2022-10-02T18:16:16.577Z,12.50
2022-10-02T18:18:23.997Z,12.50
2022-10-02T18:20:35.238Z,12.50
2022-10-02T18:22:46.573Z,12.40
2022-10-02T18:25:11.745Z,12.40
2022-10-02T18:27:26.097Z,12.40
2022-10-02T18:29:44.447Z,12.30
2022-10-02T18:31:59.524Z,12.30
2022-10-02T18:34:17.033Z,12.30
2022-10-02T18:36:27.781Z,12.30
2022-10-02T18:38:31.554Z,12.20
2022-10-02T18:40:40.469Z,12.30
2022-10-02T18:43:13.069Z,12.20
2022-10-02T18:45:32.141Z,12.20
2022-10-02T18:47:42.249Z,12.10
2022-10-02T18:49:53.156Z,12.10
2022-10-02T18:52:24.950Z,12.10
2022-10-02T18:54:29.676Z,12.10
2022-10-02T18:56:47.155Z,12.10
2022-10-02T18:59:07.139Z,12.10
2022-10-02T19:01:29.591Z,12.10
2022-10-02T19:03:38.160Z,12.00
2022-10-02T19:05:43.582Z,12.10
2022-10-02T19:07:47.777Z,12.00
2022-10-02T19:09:53.774Z,12.00
2022-10-02T19:11:57.808Z,12.00
2022-10-02T19:14:02.239Z,12.00
2022-10-02T19:16:17.984Z,11.90
2022-10-02T19:18:21.904Z,12.00
2022-10-02T19:20:36.422Z,11.90
2022-10-02T19:22:39.531Z,11.90
2022-10-02T19:24:43.020Z,11.90
2022-10-02T19:26:46.627Z,11.90
2022-10-02T19:28:50.817Z,11.90
2022-10-02T19:30:55.737Z,11.90
2022-10-02T19:32:59.109Z,11.90
2022-10-02T19:35:05.130Z,11.80
2022-10-02T19:37:09.365Z,11.80
2022-10-02T19:39:17.800Z,11.80
2022-10-02T19:41:20.611Z,11.80
2022-10-02T19:43:25.434Z,11.80
2022-10-02T19:45:29.649Z,11.80
2022-10-02T19:47:34.457Z,11.80
2022-10-02T19:49:39.328Z,11.70
2022-10-02T19:51:46.388Z,11.70
2022-10-02T19:53:53.282Z,11.60
2022-10-02T19:55:56.900Z,11.60
2022-10-02T19:58:01.865Z,11.60
2022-10-02T20:00:07.787Z,11.60
2022-10-02T20:02:15.727Z,11.60
2022-10-02T20:04:19.487Z,11.60
2022-10-02T20:06:23.568Z,11.60
2022-10-02T20:08:28.742Z,11.60
2022-10-02T20:10:33.894Z,11.60
2022-10-02T20:12:38.093Z,11.60
2022-10-02T20:14:42.186Z,11.50
2022-10-02T20:17:02.718Z,11.60
2022-10-02T20:19:05.590Z,11.50
2022-10-02T20:21:11.744Z,11.50
2022-10-02T20:23:16.497Z,11.60
2022-10-02T20:25:20.594Z,11.50
2022-10-02T20:27:28.708Z,11.50
2022-10-02T20:29:44.707Z,11.50
2022-10-02T20:31:51.010Z,11.50
2022-10-02T20:33:55.731Z,11.50
2022-10-02T20:36:01.583Z,11.50
2022-10-02T20:38:05.813Z,11.50
2022-10-02T20:40:12.758Z,11.50
2022-10-02T20:42:16.887Z,11.50
2022-10-02T20:44:21.006Z,11.40
2022-10-02T20:47:11.226Z,11.40
2022-10-02T20:50:01.697Z,11.40
2022-10-02T20:52:31.242Z,11.30
2022-10-02T20:54:41.186Z,11.30
2022-10-02T20:56:54.877Z,11.30
2022-10-02T20:59:23.110Z,11.20
2022-10-02T21:01:31.088Z,11.20
2022-10-02T21:03:57.129Z,11.20
2022-10-02T21:06:26.321Z,11.10
2022-10-02T21:08:39.808Z,11.10
2022-10-02T21:10:51.022Z,11.00
2022-10-02T21:13:08.250Z,11.00
2022-10-02T21:15:30.951Z,11.00
2022-10-02T21:17:53.405Z,11.00
2022-10-02T21:20:27.762Z,11.00
2022-10-02T21:22:58.319Z,11.00
2022-10-02T21:25:38.330Z,11.00
2022-10-02T21:28:18.102Z,11.00
2022-10-02T21:30:22.376Z,11.00
2022-10-02T21:32:34.585Z,11.00
2022-10-02T21:34:45.209Z,11.00
2022-10-02T21:36:52.850Z,10.90
2022-10-02T21:39:24.183Z,11.00
2022-10-02T21:41:48.569Z,10.90
2022-10-02T21:44:34.079Z,10.90
2022-10-02T21:47:16.211Z,10.90
2022-10-02T21:49:45.854Z,10.90
2022-10-02T21:52:16.366Z,10.90
2022-10-02T21:54:41.351Z,10.80
2022-10-02T21:57:08.841Z,10.90
2022-10-02T21:59:41.549Z,10.80
2022-10-02T22:02:10.851Z,10.80
2022-10-02T22:04:35.095Z,10.80
2022-10-02T22:06:41.633Z,10.80
2022-10-02T22:08:54.862Z,10.80
2022-10-02T22:11:00.900Z,10.70
2022-10-02T22:13:12.934Z,10.80
2022-10-02T22:15:18.177Z,10.70
2022-10-02T22:17:25.129Z,10.70
2022-10-02T22:19:39.015Z,10.70
2022-10-02T22:21:51.110Z,10.70
2022-10-02T22:24:07.304Z,10.70
2022-10-02T22:26:17.795Z,10.70
2022-10-02T22:28:24.072Z,10.70
2022-10-02T22:30:27.921Z,10.70
2022-10-02T22:33:03.347Z,10.70
2022-10-02T22:35:10.223Z,10.60
2022-10-02T22:37:33.586Z,10.60
2022-10-02T22:39:39.017Z,10.60
2022-10-02T22:41:44.291Z,10.60
2022-10-02T22:43:49.984Z,10.50
2022-10-02T22:45:56.023Z,10.50
2022-10-02T22:48:01.692Z,10.60
2022-10-02T22:50:05.977Z,10.60
2022-10-02T22:52:12.153Z,10.50
2022-10-02T22:54:21.514Z,10.50
2022-10-02T22:56:27.087Z,10.50
2022-10-02T22:58:32.561Z,10.50
2022-10-02T23:00:37.567Z,10.50
2022-10-02T23:02:45.794Z,10.50
2022-10-02T23:04:51.190Z,10.50
2022-10-02T23:06:56.000Z,10.50
2022-10-02T23:09:02.515Z,10.50
2022-10-02T23:11:08.815Z,10.40
2022-10-02T23:13:15.231Z,10.40
2022-10-02T23:15:29.291Z,10.50
2022-10-02T23:17:35.279Z,10.40
2022-10-02T23:19:41.158Z,10.50
2022-10-02T23:21:46.671Z,10.50
2022-10-02T23:23:52.978Z,10.50
2022-10-02T23:25:59.894Z,10.50
2022-10-02T23:28:04.768Z,10.40
2022-10-02T23:30:10.885Z,10.40
2022-10-02T23:32:20.494Z,10.40
2022-10-02T23:34:30.862Z,10.40
2022-10-02T23:36:36.006Z,10.40
2022-10-02T23:38:44.528Z,10.40
2022-10-02T23:41:18.133Z,10.40
2022-10-02T23:43:22.633Z,10.40
2022-10-02T23:45:27.004Z,10.40
2022-10-02T23:47:34.327Z,10.40
2022-10-02T23:49:39.529Z,10.40
2022-10-02T23:51:45.412Z,10.30
2022-10-02T23:54:04.434Z,10.40
2022-10-02T23:56:20.291Z,10.30
2022-10-02T23:58:45.422Z,10.40
